sensor_id;sensor_type;location;lat;lon;timestamp;P1;durP1;ratioP1;P2;durP2;ratioP2
51525;SDS011;37611;51.794;21.590;2023-03-03T00:38:20;425.70;;;253.20;;
51525;SDS011;37611;51.794;21.590;2023-03-03T00:42:25;376.30;;;223.90;;
51525;SDS011;37611;51.794;21.590;2023-03-03T00:46:28;412.40;;;232.80;;
51525;SDS011;37611;51.794;21.590;2023-03-03T00:50:32;391.90;;;218.10;;
51525;SDS011;37611;51.794;21.590;2023-03-03T00:54:44;359.70;;;203.10;;
51525;SDS011;37611;51.794;21.590;2023-03-03T00:58:45;328.00;;;189.20;;
51525;SDS011;37611;51.794;21.590;2023-03-03T01:02:51;317.60;;;184.30;;
51525;SDS011;37611;51.794;21.590;2023-03-03T01:06:56;352.00;;;200.40;;
51525;SDS011;37611;51.794;21.590;2023-03-03T01:10:59;342.80;;;189.00;;
51525;SDS011;37611;51.794;21.590;2023-03-03T01:19:10;361.30;;;201.80;;
51525;SDS011;37611;51.794;21.590;2023-03-03T01:23:15;358.60;;;201.50;;
51525;SDS011;37611;51.794;21.590;2023-03-03T01:31:23;339.10;;;188.70;;
51525;SDS011;37611;51.794;21.590;2023-03-03T01:35:25;352.10;;;193.10;;
51525;SDS011;37611;51.794;21.590;2023-03-03T01:39:28;318.00;;;177.60;;
51525;SDS011;37611;51.794;21.590;2023-03-03T01:43:33;321.50;;;172.80;;
51525;SDS011;37611;51.794;21.590;2023-03-03T01:52:38;319.90;;;179.40;;
51525;SDS011;37611;51.794;21.590;2023-03-03T01:57:22;344.20;;;191.50;;
51525;SDS011;37611;51.794;21.590;2023-03-03T02:01:31;323.40;;;179.80;;
51525;SDS011;37611;51.794;21.590;2023-03-03T02:05:56;334.90;;;183.50;;
51525;SDS011;37611;51.794;21.590;2023-03-03T02:10:17;337.60;;;186.50;;
51525;SDS011;37611;51.794;21.590;2023-03-03T02:14:23;306.70;;;168.10;;
51525;SDS011;37611;51.794;21.590;2023-03-03T02:18:34;288.80;;;159.30;;
51525;SDS011;37611;51.794;21.590;2023-03-03T02:27:31;301.90;;;163.90;;
51525;SDS011;37611;51.794;21.590;2023-03-03T02:31:35;301.10;;;168.90;;
51525;SDS011;37611;51.794;21.590;2023-03-03T02:35:40;282.00;;;154.90;;
51525;SDS011;37611;51.794;21.590;2023-03-03T02:39:54;282.90;;;153.80;;
51525;SDS011;37611;51.794;21.590;2023-03-03T02:44:33;259.10;;;149.50;;
51525;SDS011;37611;51.794;21.590;2023-03-03T02:48:49;271.20;;;148.90;;
51525;SDS011;37611;51.794;21.590;2023-03-03T02:52:51;251.60;;;143.50;;
51525;SDS011;37611;51.794;21.590;2023-03-03T02:56:55;236.10;;;132.70;;
51525;SDS011;37611;51.794;21.590;2023-03-03T03:00:58;219.20;;;128.00;;
51525;SDS011;37611;51.794;21.590;2023-03-03T03:05:38;240.10;;;132.40;;
51525;SDS011;37611;51.794;21.590;2023-03-03T03:09:40;216.90;;;128.50;;
51525;SDS011;37611;51.794;21.590;2023-03-03T03:13:47;196.30;;;117.80;;
51525;SDS011;37611;51.794;21.590;2023-03-03T03:17:52;189.10;;;109.50;;
51525;SDS011;37611;51.794;21.590;2023-03-03T03:21:55;169.10;;;105.20;;
51525;SDS011;37611;51.794;21.590;2023-03-03T03:25:57;172.20;;;102.90;;
51525;SDS011;37611;51.794;21.590;2023-03-03T03:30:01;164.40;;;94.90;;
51525;SDS011;37611;51.794;21.590;2023-03-03T03:34:07;164.00;;;97.90;;
51525;SDS011;37611;51.794;21.590;2023-03-03T03:38:09;139.70;;;78.20;;
51525;SDS011;37611;51.794;21.590;2023-03-03T03:42:12;130.50;;;75.30;;
51525;SDS011;37611;51.794;21.590;2023-03-03T03:46:15;131.70;;;75.10;;
51525;SDS011;37611;51.794;21.590;2023-03-03T03:50:17;118.50;;;68.10;;
51525;SDS011;37611;51.794;21.590;2023-03-03T03:54:19;120.90;;;69.10;;
51525;SDS011;37611;51.794;21.590;2023-03-03T03:58:21;113.20;;;63.60;;
51525;SDS011;37611;51.794;21.590;2023-03-03T04:02:44;113.70;;;65.90;;
51525;SDS011;37611;51.794;21.590;2023-03-03T04:06:46;104.80;;;59.40;;
51525;SDS011;37611;51.794;21.590;2023-03-03T04:11:37;111.50;;;60.40;;
51525;SDS011;37611;51.794;21.590;2023-03-03T05:37:03;75.50;;;42.80;;
51525;SDS011;37611;51.794;21.590;2023-03-03T08:18:24;70.20;;;40.30;;
51525;SDS011;37611;51.794;21.590;2023-03-03T08:57:11;65.10;;;40.00;;
51525;SDS011;37611;51.794;21.590;2023-03-03T09:01:16;66.60;;;38.20;;
51525;SDS011;37611;51.794;21.590;2023-03-03T09:05:43;68.40;;;38.30;;
51525;SDS011;37611;51.794;21.590;2023-03-03T09:09:46;71.20;;;42.10;;
51525;SDS011;37611;51.794;21.590;2023-03-03T09:14:06;70.00;;;44.50;;
51525;SDS011;37611;51.794;21.590;2023-03-03T09:18:18;61.30;;;37.00;;
51525;SDS011;37611;51.794;21.590;2023-03-03T09:22:27;66.80;;;38.80;;
51525;SDS011;37611;51.794;21.590;2023-03-03T09:26:30;65.90;;;40.70;;
51525;SDS011;37611;51.794;21.590;2023-03-03T09:30:47;72.90;;;44.20;;
51525;SDS011;37611;51.794;21.590;2023-03-03T09:34:52;66.00;;;39.40;;
51525;SDS011;37611;51.794;21.590;2023-03-03T09:39:01;71.10;;;44.20;;
51525;SDS011;37611;51.794;21.590;2023-03-03T09:57:05;55.30;;;33.80;;
51525;SDS011;37611;51.794;21.590;2023-03-03T10:01:38;63.60;;;36.90;;
51525;SDS011;37611;51.794;21.590;2023-03-03T10:16:23;59.30;;;34.30;;
51525;SDS011;37611;51.794;21.590;2023-03-03T10:20:37;89.60;;;62.90;;
51525;SDS011;37611;51.794;21.590;2023-03-03T10:34:51;104.10;;;68.60;;
51525;SDS011;37611;51.794;21.590;2023-03-03T10:45:14;72.50;;;46.40;;
51525;SDS011;37611;51.794;21.590;2023-03-03T10:49:50;57.40;;;38.80;;
51525;SDS011;37611;51.794;21.590;2023-03-03T11:19:30;54.20;;;35.50;;
51525;SDS011;37611;51.794;21.590;2023-03-03T11:40:19;44.80;;;28.40;;
51525;SDS011;37611;51.794;21.590;2023-03-03T13:26:24;62.50;;;37.50;;
51525;SDS011;37611;51.794;21.590;2023-03-03T13:40:45;58.30;;;35.20;;
51525;SDS011;37611;51.794;21.590;2023-03-03T13:45:00;74.20;;;42.10;;
51525;SDS011;37611;51.794;21.590;2023-03-03T14:49:43;55.90;;;35.70;;
51525;SDS011;37611;51.794;21.590;2023-03-03T17:04:18;59.10;;;29.10;;
51525;SDS011;37611;51.794;21.590;2023-03-03T21:09:48;39.20;;;25.10;;
51525;SDS011;37611;51.794;21.590;2023-03-03T21:14:10;47.90;;;29.20;;
51525;SDS011;37611;51.794;21.590;2023-03-03T21:18:56;46.60;;;30.90;;
51525;SDS011;37611;51.794;21.590;2023-03-03T21:32:32;76.20;;;47.30;;
51525;SDS011;37611;51.794;21.590;2023-03-03T21:46:33;45.90;;;31.10;;
